sensor_id;sensor_type;location;lat;lon;timestamp;pressure;altitude;pressure_sealevel;temperature;humidity
15604;BME280;7902;49.042;9.092;2022-07-06T00:01:37;99624.88;;;24.39;39.62
15604;BME280;7902;49.042;9.092;2022-07-06T00:04:04;99633.00;;;24.31;39.67
15604;BME280;7902;49.042;9.092;2022-07-06T00:06:30;99629.75;;;24.50;39.73
15604;BME280;7902;49.042;9.092;2022-07-06T00:08:57;99619.22;;;24.34;39.80
15604;BME280;7902;49.042;9.092;2022-07-06T00:11:23;99630.44;;;24.23;39.82
15604;BME280;7902;49.042;9.092;2022-07-06T00:13:49;99629.78;;;24.21;39.60
15604;BME280;7902;49.042;9.092;2022-07-06T00:16:15;99629.00;;;24.12;40.30
15604;BME280;7902;49.042;9.092;2022-07-06T00:18:41;99626.78;;;24.16;40.00
15604;BME280;7902;49.042;9.092;2022-07-06T00:21:07;99620.25;;;24.18;39.95
15604;BME280;7902;49.042;9.092;2022-07-06T00:23:33;99625.41;;;24.05;39.98
15604;BME280;7902;49.042;9.092;2022-07-06T00:25:59;99624.13;;;24.01;40.24
15604;BME280;7902;49.042;9.092;2022-07-06T00:28:25;99617.63;;;23.95;40.68
15604;BME280;7902;49.042;9.092;2022-07-06T00:30:52;99623.06;;;24.02;40.04
15604;BME280;7902;49.042;9.092;2022-07-06T00:33:18;99623.28;;;24.00;40.12
15604;BME280;7902;49.042;9.092;2022-07-06T00:35:44;99620.88;;;24.05;40.14
15604;BME280;7902;49.042;9.092;2022-07-06T00:38:10;99615.78;;;23.96;40.30
15604;BME280;7902;49.042;9.092;2022-07-06T00:40:36;99628.25;;;23.89;40.65
15604;BME280;7902;49.042;9.092;2022-07-06T00:43:02;99621.69;;;24.06;40.52
15604;BME280;7902;49.042;9.092;2022-07-06T00:45:28;99624.19;;;23.93;40.16
15604;BME280;7902;49.042;9.092;2022-07-06T00:47:54;99621.75;;;23.83;41.04
15604;BME280;7902;49.042;9.092;2022-07-06T00:50:21;99625.50;;;23.82;40.46
15604;BME280;7902;49.042;9.092;2022-07-06T00:52:56;99631.56;;;23.76;40.68
15604;BME280;7902;49.042;9.092;2022-07-06T00:55:27;99622.69;;;23.76;40.77
15604;BME280;7902;49.042;9.092;2022-07-06T00:57:55;99635.78;;;23.56;40.59
15604;BME280;7902;49.042;9.092;2022-07-06T01:00:26;99632.47;;;23.54;40.81
15604;BME280;7902;49.042;9.092;2022-07-06T01:02:52;99634.47;;;23.52;41.22
15604;BME280;7902;49.042;9.092;2022-07-06T01:05:19;99627.81;;;23.48;41.05
15604;BME280;7902;49.042;9.092;2022-07-06T01:07:47;99627.66;;;23.64;41.05
15604;BME280;7902;49.042;9.092;2022-07-06T01:10:15;99636.63;;;23.56;40.75
15604;BME280;7902;49.042;9.092;2022-07-06T01:12:43;99633.94;;;23.56;40.95
15604;BME280;7902;49.042;9.092;2022-07-06T01:15:15;99623.50;;;23.39;41.48
15604;BME280;7902;49.042;9.092;2022-07-06T01:17:42;99631.72;;;23.37;41.63
15604;BME280;7902;49.042;9.092;2022-07-06T01:22:35;99624.59;;;23.07;41.77
15604;BME280;7902;49.042;9.092;2022-07-06T01:25:02;99618.81;;;23.18;41.93
15604;BME280;7902;49.042;9.092;2022-07-06T01:27:28;99621.53;;;23.33;41.65
15604;BME280;7902;49.042;9.092;2022-07-06T01:29:54;99620.91;;;23.31;41.39
15604;BME280;7902;49.042;9.092;2022-07-06T01:32:20;99615.28;;;23.17;42.08
15604;BME280;7902;49.042;9.092;2022-07-06T01:34:45;99610.66;;;23.11;41.65
15604;BME280;7902;49.042;9.092;2022-07-06T01:37:11;99608.81;;;23.35;41.19
15604;BME280;7902;49.042;9.092;2022-07-06T01:39:37;99608.81;;;23.35;41.46
15604;BME280;7902;49.042;9.092;2022-07-06T01:42:03;99609.22;;;23.01;41.86
15604;BME280;7902;49.042;9.092;2022-07-06T01:44:29;99615.06;;;23.04;41.60
15604;BME280;7902;49.042;9.092;2022-07-06T01:46:55;99612.53;;;23.03;41.80
15604;BME280;7902;49.042;9.092;2022-07-06T01:49:21;99605.84;;;23.07;41.72
15604;BME280;7902;49.042;9.092;2022-07-06T01:51:47;99608.53;;;23.07;41.74
15604;BME280;7902;49.042;9.092;2022-07-06T01:54:13;99610.38;;;23.06;42.00
15604;BME280;7902;49.042;9.092;2022-07-06T01:56:39;99617.34;;;22.85;42.27
15604;BME280;7902;49.042;9.092;2022-07-06T01:59:05;99618.28;;;22.69;42.49
15604;BME280;7902;49.042;9.092;2022-07-06T02:01:31;99621.94;;;22.76;42.58
15604;BME280;7902;49.042;9.092;2022-07-06T02:03:57;99628.50;;;22.73;42.62
15604;BME280;7902;49.042;9.092;2022-07-06T02:06:23;99621.56;;;22.79;42.44
15604;BME280;7902;49.042;9.092;2022-07-06T02:08:48;99622.94;;;22.75;42.34
15604;BME280;7902;49.042;9.092;2022-07-06T02:11:17;99622.69;;;22.54;42.81
15604;BME280;7902;49.042;9.092;2022-07-06T02:13:43;99622.63;;;22.70;42.69
15604;BME280;7902;49.042;9.092;2022-07-06T02:16:09;99628.16;;;22.68;42.75
15604;BME280;7902;49.042;9.092;2022-07-06T02:18:35;99622.66;;;22.62;42.95
15604;BME280;7902;49.042;9.092;2022-07-06T02:21:04;99620.50;;;22.57;43.05
15604;BME280;7902;49.042;9.092;2022-07-06T02:23:30;99622.00;;;22.60;42.88
15604;BME280;7902;49.042;9.092;2022-07-06T02:25:55;99626.75;;;22.50;43.25
15604;BME280;7902;49.042;9.092;2022-07-06T02:28:22;99627.00;;;22.63;43.12
15604;BME280;7902;49.042;9.092;2022-07-06T02:30:48;99623.03;;;22.51;43.09
15604;BME280;7902;49.042;9.092;2022-07-06T02:33:14;99622.44;;;22.41;43.41
15604;BME280;7902;49.042;9.092;2022-07-06T02:35:39;99623.97;;;22.74;42.85
15604;BME280;7902;49.042;9.092;2022-07-06T02:38:11;99614.69;;;22.54;43.00
15604;BME280;7902;49.042;9.092;2022-07-06T02:40:37;99625.59;;;22.44;43.06
15604;BME280;7902;49.042;9.092;2022-07-06T02:43:04;99620.41;;;22.43;43.22
15604;BME280;7902;49.042;9.092;2022-07-06T02:45:30;99626.44;;;22.45;42.97
15604;BME280;7902;49.042;9.092;2022-07-06T02:47:57;99618.94;;;22.40;43.01
15604;BME280;7902;49.042;9.092;2022-07-06T02:50:24;99629.13;;;22.37;43.63
15604;BME280;7902;49.042;9.092;2022-07-06T02:52:51;99630.47;;;22.32;42.97
15604;BME280;7902;49.042;9.092;2022-07-06T02:55:17;99625.31;;;22.31;43.24
15604;BME280;7902;49.042;9.092;2022-07-06T02:57:43;99630.47;;;22.32;43.23
15604;BME280;7902;49.042;9.092;2022-07-06T03:00:09;99634.59;;;22.12;43.65
15604;BME280;7902;49.042;9.092;2022-07-06T03:02:36;99638.53;;;22.24;43.46
15604;BME280;7902;49.042;9.092;2022-07-06T03:05:02;99647.88;;;22.28;43.28
15604;BME280;7902;49.042;9.092;2022-07-06T03:07:28;99642.72;;;22.27;43.37
15604;BME280;7902;49.042;9.092;2022-07-06T03:12:20;99650.13;;;22.17;43.52
15604;BME280;7902;49.042;9.092;2022-07-06T03:14:45;99644.09;;;22.15;43.67
15604;BME280;7902;49.042;9.092;2022-07-06T03:17:12;99652.63;;;22.10;43.81
15604;BME280;7902;49.042;9.092;2022-07-06T03:19:38;99650.81;;;22.03;43.82
15604;BME280;7902;49.042;9.092;2022-07-06T03:22:04;99660.34;;;21.97;44.14
15604;BME280;7902;49.042;9.092;2022-07-06T03:24:30;99658.34;;;22.07;44.12
15604;BME280;7902;49.042;9.092;2022-07-06T03:26:56;99669.34;;;22.04;44.04
15604;BME280;7902;49.042;9.092;2022-07-06T03:29:22;99668.34;;;21.81;44.76
15604;BME280;7902;49.042;9.092;2022-07-06T03:31:48;99662.16;;;21.80;44.48
15604;BME280;7902;49.042;9.092;2022-07-06T03:34:14;99662.34;;;22.03;44.36
15604;BME280;7902;49.042;9.092;2022-07-06T03:36:39;99664.38;;;21.93;44.42
15604;BME280;7902;49.042;9.092;2022-07-06T03:39:06;99669.19;;;21.81;44.78
15604;BME280;7902;49.042;9.092;2022-07-06T03:41:32;99668.88;;;21.76;44.83
15604;BME280;7902;49.042;9.092;2022-07-06T03:43:58;99663.88;;;21.73;45.14
15604;BME280;7902;49.042;9.092;2022-07-06T03:46:24;99670.38;;;21.95;44.68
15604;BME280;7902;49.042;9.092;2022-07-06T03:48:50;99673.38;;;21.84;44.66
15604;BME280;7902;49.042;9.092;2022-07-06T03:51:16;99672.22;;;21.78;44.81
15604;BME280;7902;49.042;9.092;2022-07-06T03:53:42;99672.69;;;21.82;44.84
15604;BME280;7902;49.042;9.092;2022-07-06T03:56:08;99666.56;;;21.65;45.18
15604;BME280;7902;49.042;9.092;2022-07-06T03:58:54;99664.72;;;21.66;45.43
15604;BME280;7902;49.042;9.092;2022-07-06T04:01:20;99661.19;;;21.57;45.66
15604;BME280;7902;49.042;9.092;2022-07-06T04:03:46;99672.91;;;21.64;45.64
15604;BME280;7902;49.042;9.092;2022-07-06T04:06:12;99676.38;;;21.73;45.66
15604;BME280;7902;49.042;9.092;2022-07-06T04:08:38;99677.56;;;21.70;45.73
15604;BME280;7902;49.042;9.092;2022-07-06T04:11:04;99673.22;;;21.69;45.74
15604;BME280;7902;49.042;9.092;2022-07-06T04:13:29;99678.72;;;21.76;45.64
15604;BME280;7902;49.042;9.092;2022-07-06T04:15:55;99676.06;;;21.68;45.84
15604;BME280;7902;49.042;9.092;2022-07-06T04:18:22;99682.22;;;21.76;45.90
15604;BME280;7902;49.042;9.092;2022-07-06T04:20:48;99682.38;;;21.91;45.58
15604;BME280;7902;49.042;9.092;2022-07-06T04:23:13;99685.09;;;21.59;46.35
15604;BME280;7902;49.042;9.092;2022-07-06T04:25:39;99682.41;;;21.51;46.63
15604;BME280;7902;49.042;9.092;2022-07-06T04:28:05;99692.44;;;21.49;46.62
15604;BME280;7902;49.042;9.092;2022-07-06T04:30:31;99688.09;;;21.64;46.38
15604;BME280;7902;49.042;9.092;2022-07-06T04:32:58;99692.94;;;21.44;46.56
15604;BME280;7902;49.042;9.092;2022-07-06T04:35:24;99697.28;;;21.53;46.45
15604;BME280;7902;49.042;9.092;2022-07-06T04:37:50;99700.28;;;21.42;46.82
15604;BME280;7902;49.042;9.092;2022-07-06T04:40:16;99699.59;;;21.48;46.50
15604;BME280;7902;49.042;9.092;2022-07-06T04:42:42;99700.97;;;21.60;46.69
15604;BME280;7902;49.042;9.092;2022-07-06T04:45:08;99709.47;;;21.56;46.79
15604;BME280;7902;49.042;9.092;2022-07-06T04:47:34;99713.81;;;21.40;47.10
15604;BME280;7902;49.042;9.092;2022-07-06T04:50:02;99709.47;;;21.64;46.42
15604;BME280;7902;49.042;9.092;2022-07-06T04:52:28;99711.16;;;21.73;46.30
15604;BME280;7902;49.042;9.092;2022-07-06T04:54:54;99704.47;;;21.61;46.60
15604;BME280;7902;49.042;9.092;2022-07-06T04:57:21;99706.97;;;21.78;46.62
15604;BME280;7902;49.042;9.092;2022-07-06T04:59:47;99716.31;;;21.58;46.77
15604;BME280;7902;49.042;9.092;2022-07-06T05:02:13;99716.50;;;21.65;46.35
15604;BME280;7902;49.042;9.092;2022-07-06T05:04:39;99717.66;;;21.62;46.83
15604;BME280;7902;49.042;9.092;2022-07-06T05:07:05;99723.66;;;21.72;46.76
15604;BME280;7902;49.042;9.092;2022-07-06T05:09:31;99722.16;;;21.62;46.78
15604;BME280;7902;49.042;9.092;2022-07-06T05:11:57;99721.50;;;21.60;46.91
15604;BME280;7902;49.042;9.092;2022-07-06T05:14:23;99721.66;;;21.58;46.75
15604;BME280;7902;49.042;9.092;2022-07-06T05:16:48;99724.50;;;21.73;46.90
15604;BME280;7902;49.042;9.092;2022-07-06T05:19:14;99721.34;;;21.77;46.83
15604;BME280;7902;49.042;9.092;2022-07-06T05:21:40;99732.03;;;21.77;46.94
15604;BME280;7902;49.042;9.092;2022-07-06T05:24:06;99737.56;;;21.84;46.57
15604;BME280;7902;49.042;9.092;2022-07-06T05:26:32;99728.84;;;21.90;46.60
15604;BME280;7902;49.042;9.092;2022-07-06T05:28:58;99729.69;;;21.50;47.77
15604;BME280;7902;49.042;9.092;2022-07-06T05:31:24;99737.69;;;21.66;47.17
15604;BME280;7902;49.042;9.092;2022-07-06T05:33:50;99736.19;;;21.64;47.44
15604;BME280;7902;49.042;9.092;2022-07-06T05:36:16;99731.69;;;21.56;47.74
15604;BME280;7902;49.042;9.092;2022-07-06T05:38:42;99735.72;;;21.60;47.61
15604;BME280;7902;49.042;9.092;2022-07-06T05:41:08;99741.53;;;21.72;47.28
15604;BME280;7902;49.042;9.092;2022-07-06T05:43:36;99735.88;;;21.51;47.64
15604;BME280;7902;49.042;9.092;2022-07-06T05:46:03;99729.50;;;21.76;47.22
15604;BME280;7902;49.042;9.092;2022-07-06T05:48:29;99732.19;;;21.68;47.53
15604;BME280;7902;49.042;9.092;2022-07-06T05:51:14;99744.22;;;21.64;47.23
15604;BME280;7902;49.042;9.092;2022-07-06T05:53:40;99740.38;;;21.66;47.31
15604;BME280;7902;49.042;9.092;2022-07-06T05:56:06;99743.56;;;21.78;47.12
15604;BME280;7902;49.042;9.092;2022-07-06T05:58:32;99736.69;;;21.75;47.11
15604;BME280;7902;49.042;9.092;2022-07-06T06:00:58;99746.22;;;21.86;46.85
15604;BME280;7902;49.042;9.092;2022-07-06T06:03:24;99736.53;;;21.77;47.09
15604;BME280;7902;49.042;9.092;2022-07-06T06:05:50;99733.34;;;21.81;47.31
15604;BME280;7902;49.042;9.092;2022-07-06T06:08:16;99737.88;;;21.73;47.43
15604;BME280;7902;49.042;9.092;2022-07-06T06:10:42;99746.25;;;21.70;47.92
15604;BME280;7902;49.042;9.092;2022-07-06T06:13:08;99746.56;;;21.83;47.45
15604;BME280;7902;49.042;9.092;2022-07-06T06:15:34;99740.56;;;21.73;47.70
15604;BME280;7902;49.042;9.092;2022-07-06T06:18:01;99752.25;;;21.80;47.44
15604;BME280;7902;49.042;9.092;2022-07-06T06:20:27;99747.38;;;21.75;47.84
15604;BME280;7902;49.042;9.092;2022-07-06T06:22:54;99752.59;;;22.17;46.72
15604;BME280;7902;49.042;9.092;2022-07-06T06:25:27;99752.56;;;21.85;47.98
15604;BME280;7902;49.042;9.092;2022-07-06T06:27:54;99757.63;;;22.12;47.30
15604;BME280;7902;49.042;9.092;2022-07-06T06:30:20;99763.13;;;22.11;47.44
15604;BME280;7902;49.042;9.092;2022-07-06T06:32:46;99762.63;;;22.15;47.63
15604;BME280;7902;49.042;9.092;2022-07-06T06:35:12;99763.59;;;22.22;47.04
15604;BME280;7902;49.042;9.092;2022-07-06T06:37:38;99761.97;;;21.97;47.85
15604;BME280;7902;49.042;9.092;2022-07-06T06:40:05;99769.47;;;22.26;47.13
15604;BME280;7902;49.042;9.092;2022-07-06T06:42:32;99769.97;;;22.21;47.19
15604;BME280;7902;49.042;9.092;2022-07-06T06:44:58;99763.13;;;22.19;47.17
15604;BME280;7902;49.042;9.092;2022-07-06T06:47:24;99762.94;;;22.28;47.20
15604;BME280;7902;49.042;9.092;2022-07-06T06:49:49;99763.94;;;22.19;47.77
15604;BME280;7902;49.042;9.092;2022-07-06T06:52:15;99764.47;;;22.15;47.60
15604;BME280;7902;49.042;9.092;2022-07-06T06:54:41;99765.81;;;22.27;47.50
15604;BME280;7902;49.042;9.092;2022-07-06T06:57:07;99775.13;;;22.39;47.18
15604;BME280;7902;49.042;9.092;2022-07-06T06:59:33;99773.13;;;22.41;47.44
15604;BME280;7902;49.042;9.092;2022-07-06T07:01:59;99760.41;;;22.43;47.10
15604;BME280;7902;49.042;9.092;2022-07-06T07:04:25;99767.25;;;22.38;47.67
15604;BME280;7902;49.042;9.092;2022-07-06T07:06:51;99763.31;;;22.81;46.58
15604;BME280;7902;49.042;9.092;2022-07-06T07:09:17;99764.00;;;22.74;46.32
15604;BME280;7902;49.042;9.092;2022-07-06T07:11:42;99767.06;;;22.47;47.42
15604;BME280;7902;49.042;9.092;2022-07-06T07:14:08;99774.88;;;22.65;46.50
15604;BME280;7902;49.042;9.092;2022-07-06T07:16:34;99770.88;;;22.61;47.06
15604;BME280;7902;49.042;9.092;2022-07-06T07:19:00;99763.38;;;22.72;46.76
15604;BME280;7902;49.042;9.092;2022-07-06T07:21:26;99768.03;;;22.70;47.04
15604;BME280;7902;49.042;9.092;2022-07-06T07:23:52;99762.38;;;22.73;47.20
15604;BME280;7902;49.042;9.092;2022-07-06T07:26:18;99765.22;;;23.03;46.28
15604;BME280;7902;49.042;9.092;2022-07-06T07:28:44;99767.97;;;22.95;46.47
15604;BME280;7902;49.042;9.092;2022-07-06T07:31:10;99752.50;;;23.05;46.30
15604;BME280;7902;49.042;9.092;2022-07-06T07:33:35;99764.44;;;22.94;46.46
15604;BME280;7902;49.042;9.092;2022-07-06T07:36:01;99756.28;;;23.18;45.45
15604;BME280;7902;49.042;9.092;2022-07-06T07:38:27;99748.81;;;23.37;45.39
15604;BME280;7902;49.042;9.092;2022-07-06T07:40:54;99753.38;;;23.28;45.70
15604;BME280;7902;49.042;9.092;2022-07-06T07:43:20;99754.63;;;23.40;45.17
15604;BME280;7902;49.042;9.092;2022-07-06T07:45:47;99759.19;;;23.40;45.77
15604;BME280;7902;49.042;9.092;2022-07-06T07:48:13;99763.22;;;23.36;44.98
15604;BME280;7902;49.042;9.092;2022-07-06T07:50:41;99759.78;;;23.58;44.94
15604;BME280;7902;49.042;9.092;2022-07-06T07:53:07;99751.72;;;23.58;45.15
15604;BME280;7902;49.042;9.092;2022-07-06T07:55:33;99752.66;;;23.65;44.82
15604;BME280;7902;49.042;9.092;2022-07-06T07:57:59;99752.03;;;23.63;44.50
15604;BME280;7902;49.042;9.092;2022-07-06T08:00:25;99748.09;;;23.43;44.67
15604;BME280;7902;49.042;9.092;2022-07-06T08:02:52;99749.13;;;23.42;45.05
15604;BME280;7902;49.042;9.092;2022-07-06T08:05:18;99749.81;;;23.67;44.77
15604;BME280;7902;49.042;9.092;2022-07-06T08:07:44;99752.25;;;23.53;45.10
15604;BME280;7902;49.042;9.092;2022-07-06T08:10:10;99755.34;;;23.65;44.67
15604;BME280;7902;49.042;9.092;2022-07-06T08:12:37;99749.34;;;23.63;45.08
15604;BME280;7902;49.042;9.092;2022-07-06T08:15:04;99749.88;;;23.58;45.24
15604;BME280;7902;49.042;9.092;2022-07-06T08:17:30;99748.91;;;23.74;44.95
15604;BME280;7902;49.042;9.092;2022-07-06T08:19:56;99746.72;;;23.78;44.51
15604;BME280;7902;49.042;9.092;2022-07-06T08:22:22;99741.72;;;23.52;44.92
15604;BME280;7902;49.042;9.092;2022-07-06T08:24:48;99745.03;;;23.77;44.60
15604;BME280;7902;49.042;9.092;2022-07-06T08:27:14;99747.19;;;23.81;44.96
15604;BME280;7902;49.042;9.092;2022-07-06T08:29:40;99750.03;;;23.80;44.31
15604;BME280;7902;49.042;9.092;2022-07-06T08:32:06;99748.88;;;23.82;44.41
15604;BME280;7902;49.042;9.092;2022-07-06T08:34:32;99744.81;;;23.86;44.60
15604;BME280;7902;49.042;9.092;2022-07-06T08:36:58;99747.34;;;23.80;44.34
15604;BME280;7902;49.042;9.092;2022-07-06T08:39:24;99745.81;;;23.85;44.78
15604;BME280;7902;49.042;9.092;2022-07-06T08:41:50;99745.25;;;23.90;44.85
15604;BME280;7902;49.042;9.092;2022-07-06T08:44:17;99750.03;;;23.80;44.64
15604;BME280;7902;49.042;9.092;2022-07-06T08:46:44;99749.84;;;24.04;44.45
15604;BME280;7902;49.042;9.092;2022-07-06T08:49:15;99746.44;;;24.10;44.47
15604;BME280;7902;49.042;9.092;2022-07-06T08:51:42;99751.31;;;24.06;44.01
15604;BME280;7902;49.042;9.092;2022-07-06T08:54:09;99748.91;;;24.12;44.29
15604;BME280;7902;49.042;9.092;2022-07-06T08:56:37;99760.69;;;24.11;44.51
15604;BME280;7902;49.042;9.092;2022-07-06T08:59:03;99757.41;;;24.23;43.96
15604;BME280;7902;49.042;9.092;2022-07-06T09:01:29;99756.56;;;24.23;44.02
15604;BME280;7902;49.042;9.092;2022-07-06T09:03:55;99758.59;;;24.21;44.24
15604;BME280;7902;49.042;9.092;2022-07-06T09:06:26;99753.34;;;24.27;43.99
15604;BME280;7902;49.042;9.092;2022-07-06T09:08:54;99760.25;;;24.22;44.19
15604;BME280;7902;49.042;9.092;2022-07-06T09:11:21;99756.13;;;24.11;44.36
15604;BME280;7902;49.042;9.092;2022-07-06T09:13:48;99761.16;;;24.14;44.22
15604;BME280;7902;49.042;9.092;2022-07-06T09:16:15;99762.00;;;24.15;44.15
15604;BME280;7902;49.042;9.092;2022-07-06T09:18:45;99761.84;;;24.31;43.91
15604;BME280;7902;49.042;9.092;2022-07-06T09:21:11;99762.66;;;24.17;44.33
15604;BME280;7902;49.042;9.092;2022-07-06T09:23:38;99761.81;;;24.16;44.30
15604;BME280;7902;49.042;9.092;2022-07-06T09:26:05;99758.59;;;24.35;44.11
15604;BME280;7902;49.042;9.092;2022-07-06T09:28:44;99762.81;;;24.53;43.51
15604;BME280;7902;49.042;9.092;2022-07-06T09:31:10;99759.47;;;24.51;43.97
15604;BME280;7902;49.042;9.092;2022-07-06T09:33:37;99762.97;;;24.51;44.11
15604;BME280;7902;49.042;9.092;2022-07-06T09:36:04;99768.06;;;24.46;43.83
15604;BME280;7902;49.042;9.092;2022-07-06T09:38:31;99765.97;;;24.56;44.20
15604;BME280;7902;49.042;9.092;2022-07-06T09:40:57;99758.91;;;24.70;43.42
15604;BME280;7902;49.042;9.092;2022-07-06T09:43:24;99769.75;;;24.62;43.31
15604;BME280;7902;49.042;9.092;2022-07-06T09:45:55;99767.34;;;24.67;43.35
15604;BME280;7902;49.042;9.092;2022-07-06T09:48:23;99772.72;;;24.67;43.18
15604;BME280;7902;49.042;9.092;2022-07-06T09:50:58;99769.19;;;24.66;43.33
15604;BME280;7902;49.042;9.092;2022-07-06T09:53:26;99776.31;;;24.59;43.73
15604;BME280;7902;49.042;9.092;2022-07-06T09:55:54;99776.22;;;24.67;43.59
15604;BME280;7902;49.042;9.092;2022-07-06T09:58:21;99771.97;;;24.73;43.76
15604;BME280;7902;49.042;9.092;2022-07-06T10:00:49;99774.84;;;24.71;43.73
15604;BME280;7902;49.042;9.092;2022-07-06T10:03:16;99778.84;;;24.75;43.44
15604;BME280;7902;49.042;9.092;2022-07-06T10:05:44;99776.97;;;24.76;42.97
15604;BME280;7902;49.042;9.092;2022-07-06T10:08:17;99774.69;;;24.87;42.91
15604;BME280;7902;49.042;9.092;2022-07-06T10:10:43;99784.28;;;24.82;43.06
15604;BME280;7902;49.042;9.092;2022-07-06T10:13:11;99787.63;;;24.84;42.85
15604;BME280;7902;49.042;9.092;2022-07-06T10:15:39;99780.72;;;24.89;42.43
15604;BME280;7902;49.042;9.092;2022-07-06T10:18:09;99787.47;;;25.00;42.30
15604;BME280;7902;49.042;9.092;2022-07-06T10:20:37;99774.03;;;25.00;42.29
15604;BME280;7902;49.042;9.092;2022-07-06T10:23:05;99785.06;;;24.90;41.98
15604;BME280;7902;49.042;9.092;2022-07-06T10:25:33;99791.25;;;25.06;41.78
15604;BME280;7902;49.042;9.092;2022-07-06T10:27:59;99784.41;;;25.03;41.98
15604;BME280;7902;49.042;9.092;2022-07-06T10:30:27;99782.34;;;25.05;41.87
15604;BME280;7902;49.042;9.092;2022-07-06T10:32:56;99784.28;;;25.11;42.05
15604;BME280;7902;49.042;9.092;2022-07-06T10:35:24;99785.13;;;25.12;42.19
15604;BME280;7902;49.042;9.092;2022-07-06T10:38:09;99784.84;;;25.21;42.09
15604;BME280;7902;49.042;9.092;2022-07-06T10:40:38;99785.66;;;25.22;42.29
15604;BME280;7902;49.042;9.092;2022-07-06T10:43:37;99785.50;;;25.09;42.04
15604;BME280;7902;49.042;9.092;2022-07-06T10:46:08;99786.41;;;25.16;41.87
15604;BME280;7902;49.042;9.092;2022-07-06T10:48:35;99777.19;;;25.04;42.67
15604;BME280;7902;49.042;9.092;2022-07-06T10:51:02;99788.25;;;25.15;42.10
15604;BME280;7902;49.042;9.092;2022-07-06T10:53:32;99798.00;;;25.16;41.80
15604;BME280;7902;49.042;9.092;2022-07-06T10:56:02;99789.22;;;25.08;41.49
15604;BME280;7902;49.042;9.092;2022-07-06T11:01:07;99790.03;;;25.23;42.22
15604;BME280;7902;49.042;9.092;2022-07-06T11:03:42;99788.19;;;25.09;42.02
15604;BME280;7902;49.042;9.092;2022-07-06T11:06:17;99784.66;;;25.08;41.71
15604;BME280;7902;49.042;9.092;2022-07-06T11:09:03;99774.16;;;25.28;40.82
15604;BME280;7902;49.042;9.092;2022-07-06T11:13:59;99776.28;;;25.32;41.24
15604;BME280;7902;49.042;9.092;2022-07-06T11:16:31;99785.50;;;25.23;41.49
15604;BME280;7902;49.042;9.092;2022-07-06T11:19:05;99781.72;;;25.39;41.84
15604;BME280;7902;49.042;9.092;2022-07-06T11:21:36;99785.34;;;25.46;41.48
15604;BME280;7902;49.042;9.092;2022-07-06T11:24:04;99782.81;;;25.59;41.41
15604;BME280;7902;49.042;9.092;2022-07-06T11:26:30;99779.09;;;25.60;41.56
15604;BME280;7902;49.042;9.092;2022-07-06T11:28:58;99779.28;;;25.59;41.26
15604;BME280;7902;49.042;9.092;2022-07-06T11:31:24;99767.72;;;25.44;41.33
15604;BME280;7902;49.042;9.092;2022-07-06T11:33:50;99767.38;;;25.68;40.99
15604;BME280;7902;49.042;9.092;2022-07-06T11:36:21;99759.25;;;25.61;41.00
15604;BME280;7902;49.042;9.092;2022-07-06T11:38:49;99762.00;;;25.53;41.44
15604;BME280;7902;49.042;9.092;2022-07-06T11:41:16;99763.03;;;25.52;41.32
15604;BME280;7902;49.042;9.092;2022-07-06T11:43:44;99754.50;;;25.63;40.82
15604;BME280;7902;49.042;9.092;2022-07-06T11:48:48;99751.34;;;25.81;41.44
15604;BME280;7902;49.042;9.092;2022-07-06T11:51:14;99759.69;;;25.65;40.95
15604;BME280;7902;49.042;9.092;2022-07-06T11:53:45;99757.84;;;25.65;41.00
15604;BME280;7902;49.042;9.092;2022-07-06T11:56:12;99751.94;;;25.76;40.45
15604;BME280;7902;49.042;9.092;2022-07-06T11:58:40;99737.78;;;25.68;40.67
15604;BME280;7902;49.042;9.092;2022-07-06T12:01:11;99754.84;;;25.75;40.95
15604;BME280;7902;49.042;9.092;2022-07-06T12:03:37;99745.72;;;25.76;40.23
15604;BME280;7902;49.042;9.092;2022-07-06T12:06:13;99746.03;;;25.66;39.25
15604;BME280;7902;49.042;9.092;2022-07-06T12:08:44;99739.13;;;25.78;39.31
15604;BME280;7902;49.042;9.092;2022-07-06T12:11:10;99754.50;;;25.85;39.62
15604;BME280;7902;49.042;9.092;2022-07-06T12:13:41;99739.25;;;25.92;39.75
15604;BME280;7902;49.042;9.092;2022-07-06T12:16:09;99742.13;;;25.90;39.77
15604;BME280;7902;49.042;9.092;2022-07-06T12:18:37;99746.34;;;25.99;39.75
15604;BME280;7902;49.042;9.092;2022-07-06T12:21:03;99741.44;;;26.09;39.55
15604;BME280;7902;49.042;9.092;2022-07-06T12:23:41;99746.78;;;26.03;39.54
15604;BME280;7902;49.042;9.092;2022-07-06T12:26:08;99750.41;;;25.89;39.58
15604;BME280;7902;49.042;9.092;2022-07-06T12:28:34;99746.59;;;26.04;38.88
15604;BME280;7902;49.042;9.092;2022-07-06T12:31:00;99750.59;;;26.15;39.37
15604;BME280;7902;49.042;9.092;2022-07-06T12:33:26;99744.03;;;26.17;39.35
15604;BME280;7902;49.042;9.092;2022-07-06T12:35:54;99745.16;;;26.30;39.28
15604;BME280;7902;49.042;9.092;2022-07-06T12:38:24;99739.59;;;26.31;39.69
15604;BME280;7902;49.042;9.092;2022-07-06T12:40:50;99742.53;;;26.36;39.31
15604;BME280;7902;49.042;9.092;2022-07-06T12:43:39;99742.38;;;26.44;38.89
15604;BME280;7902;49.042;9.092;2022-07-06T12:46:32;99742.25;;;26.59;38.03
15604;BME280;7902;49.042;9.092;2022-07-06T12:49:00;99731.81;;;26.49;39.29
15604;BME280;7902;49.042;9.092;2022-07-06T12:51:27;99733.09;;;26.53;37.93
15604;BME280;7902;49.042;9.092;2022-07-06T12:54:11;99737.72;;;26.66;37.52
15604;BME280;7902;49.042;9.092;2022-07-06T12:56:37;99737.44;;;26.89;37.56
15604;BME280;7902;49.042;9.092;2022-07-06T12:59:22;99737.41;;;26.82;37.59
15604;BME280;7902;49.042;9.092;2022-07-06T13:01:48;99741.53;;;26.85;37.41
15604;BME280;7902;49.042;9.092;2022-07-06T13:04:14;99735.31;;;26.78;36.84
15604;BME280;7902;49.042;9.092;2022-07-06T13:06:40;99737.44;;;26.89;36.45
15604;BME280;7902;49.042;9.092;2022-07-06T13:09:06;99733.94;;;26.95;37.39
15604;BME280;7902;49.042;9.092;2022-07-06T13:11:32;99727.19;;;27.12;37.57
15604;BME280;7902;49.042;9.092;2022-07-06T13:13:59;99728.91;;;27.39;36.48
15604;BME280;7902;49.042;9.092;2022-07-06T13:16:25;99730.94;;;27.24;37.46
15604;BME280;7902;49.042;9.092;2022-07-06T13:18:57;99727.06;;;27.46;36.66
15604;BME280;7902;49.042;9.092;2022-07-06T13:21:23;99726.69;;;27.56;36.44
15604;BME280;7902;49.042;9.092;2022-07-06T13:23:49;99723.59;;;27.66;36.52